createdAt,value
2018-07-13T00:00:47.397Z,1011.10
2018-07-13T00:01:47.378Z,1011.11
2018-07-13T00:02:47.366Z,1011.12
2018-07-13T00:03:47.349Z,1011.16
2018-07-13T00:04:47.337Z,1011.13
2018-07-13T00:05:47.319Z,1011.13
2018-07-13T00:06:47.305Z,1011.15
2018-07-13T00:07:47.292Z,1011.13
2018-07-13T00:08:47.280Z,1011.15
2018-07-13T00:09:47.262Z,1011.13
2018-07-13T00:10:47.249Z,1011.10
2018-07-13T00:11:47.238Z,1011.17
2018-07-13T00:12:47.220Z,1011.14
2018-07-13T00:13:47.204Z,1011.16
2018-07-13T00:14:47.191Z,1011.15
2018-07-13T00:15:47.178Z,1011.13
2018-07-13T00:16:47.163Z,1011.08
2018-07-13T00:17:47.147Z,1011.06
2018-07-13T00:18:47.136Z,1011.07
2018-07-13T00:19:47.120Z,1011.02
2018-07-13T00:20:47.105Z,1010.98
2018-07-13T00:21:47.090Z,1010.96
2018-07-13T00:22:47.076Z,1010.98
2018-07-13T00:23:47.061Z,1010.93
2018-07-13T00:24:47.047Z,1010.97
2018-07-13T00:25:47.031Z,1011.01
2018-07-13T00:26:47.017Z,1011.03
2018-07-13T00:27:47.007Z,1011.06
2018-07-13T00:28:46.989Z,1011.08
2018-07-13T00:29:46.972Z,1011.08
2018-07-13T00:30:46.960Z,1011.08
2018-07-13T00:31:46.946Z,1011.09
2018-07-13T00:32:46.933Z,1011.11
2018-07-13T00:33:46.917Z,1011.09
2018-07-13T00:34:46.905Z,1011.13
2018-07-13T00:35:46.923Z,1011.18
2018-07-13T00:36:46.873Z,1011.15
2018-07-13T00:37:46.858Z,1011.17
2018-07-13T00:38:46.845Z,1011.14
2018-07-13T00:39:46.829Z,1011.18
2018-07-13T00:40:46.815Z,1011.21
2018-07-13T00:41:46.803Z,1011.19
2018-07-13T00:42:46.784Z,1011.16
2018-07-13T00:43:46.770Z,1011.13
2018-07-13T00:44:46.765Z,1011.16
2018-07-13T00:45:46.743Z,1011.13
2018-07-13T00:46:46.727Z,1011.13
2018-07-13T00:47:46.715Z,1011.10
2018-07-13T00:48:46.701Z,1011.14
2018-07-13T00:49:46.683Z,1011.09
2018-07-13T00:50:46.670Z,1011.10
2018-07-13T00:51:46.707Z,1011.08
2018-07-13T00:52:46.649Z,1011.09
2018-07-13T00:53:46.629Z,1011.10
2018-07-13T00:54:46.614Z,1011.06
2018-07-13T00:55:46.598Z,1011.08
2018-07-13T00:56:46.587Z,1011.05
2018-07-13T00:57:46.569Z,1011.05
2018-07-13T00:58:46.555Z,1011.07
2018-07-13T00:59:46.540Z,1011.05
2018-07-13T01:00:46.526Z,1011.07
2018-07-13T01:01:46.509Z,1011.07
2018-07-13T01:02:46.515Z,1011.06
2018-07-13T01:03:46.485Z,1011.09
2018-07-13T01:04:46.465Z,1011.07
2018-07-13T01:05:46.455Z,1011.07
2018-07-13T01:06:46.441Z,1011.09
2018-07-13T01:07:46.429Z,1011.07
2018-07-13T01:08:46.410Z,1011.06
2018-07-13T01:09:46.395Z,1011.10
2018-07-13T01:10:46.381Z,1011.11
2018-07-13T01:11:46.367Z,1011.13
2018-07-13T01:12:46.354Z,1011.15
2018-07-13T01:13:46.337Z,1011.17
2018-07-13T01:14:46.325Z,1011.13
2018-07-13T01:15:46.308Z,1011.14
2018-07-13T01:16:46.300Z,1011.14
2018-07-13T01:17:46.279Z,1011.15
2018-07-13T01:18:46.265Z,1011.14
2018-07-13T01:19:46.248Z,1011.16
2018-07-13T01:20:46.234Z,1011.16
2018-07-13T01:21:46.229Z,1011.15
2018-07-13T01:22:46.207Z,1011.14
2018-07-13T01:23:46.194Z,1011.14
2018-07-13T01:24:46.176Z,1011.13
2018-07-13T01:25:46.161Z,1011.14
2018-07-13T01:26:46.146Z,1011.12
2018-07-13T01:27:46.133Z,1011.11
2018-07-13T01:28:46.119Z,1011.10
2018-07-13T01:29:46.103Z,1011.09
2018-07-13T01:30:46.089Z,1011.08
2018-07-13T01:31:46.073Z,1011.07
2018-07-13T01:32:46.060Z,1011.04
2018-07-13T01:33:46.044Z,1011.07
2018-07-13T01:34:46.032Z,1011.04
2018-07-13T01:35:46.015Z,1011.02
2018-07-13T01:36:46.001Z,1011.04
2018-07-13T01:37:45.986Z,1011.05
2018-07-13T01:38:45.975Z,1011.07
2018-07-13T01:39:45.953Z,1011.04
2018-07-13T01:40:45.942Z,1011.09
2018-07-13T01:41:45.926Z,1011.11
2018-07-13T01:42:45.915Z,1011.09
2018-07-13T01:43:45.895Z,1011.08
2018-07-13T01:44:45.883Z,1011.06
2018-07-13T01:45:45.866Z,1011.09
2018-07-13T01:46:45.853Z,1011.09
2018-07-13T01:47:45.843Z,1011.07
2018-07-13T01:48:45.826Z,1011.13
2018-07-13T01:49:45.808Z,1011.10
2018-07-13T01:50:45.794Z,1011.05
2018-07-13T01:51:45.782Z,1011.06
2018-07-13T01:52:45.764Z,1011.07
2018-07-13T01:53:45.748Z,1011.10
2018-07-13T01:54:45.733Z,1011.15
2018-07-13T01:55:45.854Z,1011.11
2018-07-13T01:56:45.704Z,1011.17
2018-07-13T01:57:45.690Z,1011.15
2018-07-13T01:58:45.674Z,1011.20
2018-07-13T01:59:45.659Z,1011.17
2018-07-13T02:00:45.645Z,1011.15
2018-07-13T02:01:45.629Z,1011.16
2018-07-13T02:02:45.614Z,1011.13
2018-07-13T02:03:45.600Z,1011.20
2018-07-13T02:04:45.585Z,1011.20
2018-07-13T02:05:45.573Z,1011.17
2018-07-13T02:06:45.553Z,1011.15
2018-07-13T02:07:45.538Z,1011.16
2018-07-13T02:08:45.529Z,1011.19
2018-07-13T02:09:45.510Z,1011.19
2018-07-13T02:10:45.493Z,1011.19
2018-07-13T02:11:45.481Z,1011.19
2018-07-13T02:12:45.464Z,1011.20
2018-07-13T02:13:45.454Z,1011.19
2018-07-13T02:14:45.436Z,1011.20
2018-07-13T02:15:45.420Z,1011.21
2018-07-13T02:16:45.406Z,1011.19
2018-07-13T02:17:45.390Z,1011.21
2018-07-13T02:18:45.380Z,1011.20
2018-07-13T02:19:45.364Z,1011.20
2018-07-13T02:20:45.346Z,1011.20
2018-07-13T02:21:45.333Z,1011.19
2018-07-13T02:22:45.316Z,1011.15
2018-07-13T02:23:45.303Z,1011.18
2018-07-13T02:24:45.287Z,1011.25
2018-07-13T02:25:45.271Z,1011.23
2018-07-13T02:26:45.257Z,1011.24
2018-07-13T02:27:45.242Z,1011.21
2018-07-13T02:28:45.236Z,1011.23
2018-07-13T02:29:45.214Z,1011.24
2018-07-13T02:30:45.198Z,1011.24
2018-07-13T02:31:45.183Z,1011.21
2018-07-13T02:32:45.166Z,1011.22
2018-07-13T02:33:45.191Z,1011.23
2018-07-13T02:34:45.136Z,1011.23
2018-07-13T02:35:45.121Z,1011.21
2018-07-13T02:36:45.159Z,1011.21
2018-07-13T02:37:45.142Z,1011.21
2018-07-13T02:38:45.085Z,1011.17
2018-07-13T02:39:45.062Z,1011.17
2018-07-13T02:40:45.049Z,1011.17
2018-07-13T02:41:45.039Z,1011.17
2018-07-13T02:42:45.017Z,1011.16
2018-07-13T02:43:45.005Z,1011.18
2018-07-13T02:44:44.991Z,1011.19
2018-07-13T02:45:44.969Z,1011.18
2018-07-13T02:46:44.954Z,1011.18
2018-07-13T02:47:44.939Z,1011.16
2018-07-13T02:48:44.928Z,1011.21
2018-07-13T02:49:44.908Z,1011.22
2018-07-13T02:50:44.895Z,1011.23
2018-07-13T02:51:44.883Z,1011.22
2018-07-13T02:52:44.870Z,1011.28
2018-07-13T02:53:44.854Z,1011.27
2018-07-13T02:54:44.833Z,1011.25
2018-07-13T02:55:44.818Z,1011.24
2018-07-13T02:56:44.805Z,1011.26
2018-07-13T02:57:44.788Z,1011.29
2018-07-13T02:58:44.773Z,1011.29
2018-07-13T02:59:44.759Z,1011.26
2018-07-13T03:00:44.746Z,1011.25
2018-07-13T03:01:44.728Z,1011.30
2018-07-13T03:02:44.713Z,1011.27
2018-07-13T03:03:44.699Z,1011.24
2018-07-13T03:04:44.687Z,1011.33
2018-07-13T03:05:44.668Z,1011.28
2018-07-13T03:06:44.652Z,1011.30
2018-07-13T03:07:44.638Z,1011.31
2018-07-13T03:08:44.623Z,1011.29
2018-07-13T03:09:44.606Z,1011.30
2018-07-13T03:10:44.595Z,1011.34
2018-07-13T03:11:44.577Z,1011.34
2018-07-13T03:12:44.562Z,1011.33
2018-07-13T03:13:44.545Z,1011.34
2018-07-13T03:14:44.528Z,1011.38
2018-07-13T03:15:44.515Z,1011.47
2018-07-13T03:16:44.500Z,1011.45
2018-07-13T03:17:44.484Z,1011.47
2018-07-13T03:18:44.477Z,1011.50
2018-07-13T03:19:44.455Z,1011.50
2018-07-13T03:20:44.442Z,1011.51
2018-07-13T03:21:44.423Z,1011.50
2018-07-13T03:22:44.409Z,1011.57
2018-07-13T03:23:44.392Z,1011.54
2018-07-13T03:24:44.377Z,1011.53
2018-07-13T03:25:44.362Z,1011.49
2018-07-13T03:26:44.346Z,1011.50
2018-07-13T03:27:44.332Z,1011.44
2018-07-13T03:28:44.315Z,1011.44
2018-07-13T03:29:44.303Z,1011.39
2018-07-13T03:30:44.285Z,1011.42
2018-07-13T03:31:44.272Z,1011.42
2018-07-13T03:32:44.255Z,1011.41
2018-07-13T03:33:44.239Z,1011.41
2018-07-13T03:34:44.230Z,1011.41
2018-07-13T03:35:44.207Z,1011.43
2018-07-13T03:36:44.193Z,1011.47
2018-07-13T03:37:44.176Z,1011.42
2018-07-13T03:38:44.161Z,1011.45
2018-07-13T03:39:44.146Z,1011.51
2018-07-13T03:40:44.133Z,1011.49
2018-07-13T03:41:44.114Z,1011.55
2018-07-13T03:42:44.100Z,1011.58
2018-07-13T03:43:44.084Z,1011.57
2018-07-13T03:44:44.070Z,1011.57
2018-07-13T03:45:44.053Z,1011.55
2018-07-13T03:46:44.040Z,1011.59
2018-07-13T03:47:44.024Z,1011.56
2018-07-13T03:48:44.053Z,1011.60
2018-07-13T03:49:43.992Z,1011.67
2018-07-13T03:50:43.978Z,1011.64
2018-07-13T03:51:43.961Z,1011.62
2018-07-13T03:52:43.946Z,1011.68
2018-07-13T03:53:43.939Z,1011.69
2018-07-13T03:54:43.915Z,1011.73
2018-07-13T03:55:43.899Z,1011.71
2018-07-13T03:56:43.884Z,1011.69
2018-07-13T03:57:43.869Z,1011.70
2018-07-13T03:58:43.853Z,1011.70
2018-07-13T03:59:43.838Z,1011.71
2018-07-13T04:00:43.824Z,1011.76
2018-07-13T04:01:43.807Z,1011.77
2018-07-13T04:02:43.790Z,1011.77
2018-07-13T04:03:43.779Z,1011.74
2018-07-13T04:04:43.760Z,1011.74
2018-07-13T04:05:43.745Z,1011.70
2018-07-13T04:06:43.729Z,1011.72
2018-07-13T04:07:43.713Z,1011.71
2018-07-13T04:08:43.696Z,1011.70
2018-07-13T04:09:43.680Z,1011.70
2018-07-13T04:10:43.669Z,1011.71
2018-07-13T04:11:43.651Z,1011.70
2018-07-13T04:12:43.633Z,1011.71
2018-07-13T04:13:43.623Z,1011.71
2018-07-13T04:14:43.665Z,1011.71
2018-07-13T04:15:43.595Z,1011.74
2018-07-13T04:16:43.576Z,1011.73
2018-07-13T04:17:43.557Z,1011.74
2018-07-13T04:18:43.542Z,1011.79
2018-07-13T04:19:43.526Z,1011.79
2018-07-13T04:20:43.509Z,1011.78
2018-07-13T04:21:43.494Z,1011.76
2018-07-13T04:22:43.477Z,1011.85
2018-07-13T04:23:43.462Z,1011.86
2018-07-13T04:24:43.448Z,1011.89
2018-07-13T04:25:43.432Z,1011.88
2018-07-13T04:26:43.418Z,1011.85
2018-07-13T04:27:43.404Z,1011.87
2018-07-13T04:28:43.450Z,1011.88
2018-07-13T04:29:43.371Z,1011.87
2018-07-13T04:30:43.356Z,1011.85
2018-07-13T04:31:43.339Z,1011.90
2018-07-13T04:32:43.324Z,1011.84
2018-07-13T04:33:43.308Z,1011.86
2018-07-13T04:34:43.292Z,1011.85
2018-07-13T04:35:43.277Z,1011.86
2018-07-13T04:36:43.262Z,1011.83
2018-07-13T04:37:43.245Z,1011.86
2018-07-13T04:38:43.230Z,1011.85
2018-07-13T04:39:43.215Z,1011.88
2018-07-13T04:40:43.206Z,1011.82
2018-07-13T04:41:43.181Z,1011.83
2018-07-13T04:42:43.167Z,1011.85
2018-07-13T04:43:43.152Z,1011.82
2018-07-13T04:44:43.141Z,1011.84
2018-07-13T04:45:43.122Z,1011.82
2018-07-13T04:46:43.104Z,1011.80
2018-07-13T04:47:43.090Z,1011.84
2018-07-13T04:48:43.075Z,1011.87
2018-07-13T04:49:43.059Z,1011.84
2018-07-13T04:50:43.045Z,1011.85
2018-07-13T04:51:43.029Z,1011.88
2018-07-13T04:52:43.016Z,1011.89
2018-07-13T04:53:42.999Z,1011.90
2018-07-13T04:54:42.981Z,1011.89
2018-07-13T04:55:42.966Z,1011.91
2018-07-13T04:56:42.957Z,1011.91
2018-07-13T04:57:42.939Z,1011.90
2018-07-13T04:58:42.923Z,1011.91
2018-07-13T04:59:42.907Z,1011.93
2018-07-13T05:00:42.911Z,1011.93
2018-07-13T05:01:42.894Z,1011.89
2018-07-13T05:02:42.863Z,1011.90
2018-07-13T05:03:42.847Z,1011.95
2018-07-13T05:04:42.831Z,1011.93
2018-07-13T05:05:42.815Z,1011.92
2018-07-13T05:06:42.799Z,1011.93
2018-07-13T05:07:42.785Z,1011.92
2018-07-13T05:08:42.767Z,1011.96
2018-07-13T05:09:42.750Z,1011.94
2018-07-13T05:10:42.738Z,1011.95
2018-07-13T05:11:42.722Z,1011.97
2018-07-13T05:12:42.711Z,1011.94
2018-07-13T05:13:42.691Z,1011.90
2018-07-13T05:14:42.676Z,1011.91
2018-07-13T05:15:42.661Z,1011.92
2018-07-13T05:16:42.643Z,1011.91
2018-07-13T05:17:42.629Z,1011.95
2018-07-13T05:18:42.614Z,1011.94
2018-07-13T05:19:42.600Z,1012.00
2018-07-13T05:20:42.583Z,1012.02
2018-07-13T05:21:42.570Z,1012.03
2018-07-13T05:22:42.552Z,1012.07
2018-07-13T05:23:42.584Z,1012.07
2018-07-13T05:24:42.522Z,1012.08
2018-07-13T05:25:42.504Z,1012.04
2018-07-13T05:26:42.490Z,1012.02
2018-07-13T05:27:42.475Z,1011.97
2018-07-13T05:28:42.461Z,1012.01
2018-07-13T05:29:42.445Z,1012.01
2018-07-13T05:30:42.464Z,1012.00
2018-07-13T05:31:42.418Z,1012.01
2018-07-13T05:32:42.403Z,1012.02
2018-07-13T05:33:42.385Z,1012.07
2018-07-13T05:34:42.370Z,1012.06
2018-07-13T05:35:42.355Z,1012.09
2018-07-13T05:36:42.342Z,1012.11
2018-07-13T05:37:42.324Z,1012.18
2018-07-13T05:38:42.311Z,1012.18
2018-07-13T05:39:42.317Z,1012.21
2018-07-13T05:40:42.279Z,1012.27
2018-07-13T05:41:42.263Z,1012.22
2018-07-13T05:42:42.249Z,1012.25
2018-07-13T05:43:42.236Z,1012.30
2018-07-13T05:44:42.220Z,1012.29
2018-07-13T05:45:42.203Z,1012.30
2018-07-13T05:46:42.187Z,1012.29
2018-07-13T05:47:42.174Z,1012.30
2018-07-13T05:48:42.161Z,1012.33
2018-07-13T05:49:42.211Z,1012.28
2018-07-13T05:50:42.134Z,1012.33
2018-07-13T05:51:42.114Z,1012.31
2018-07-13T05:52:42.101Z,1012.34
2018-07-13T05:53:42.087Z,1012.32
2018-07-13T05:54:42.069Z,1012.31
2018-07-13T05:55:42.054Z,1012.34
2018-07-13T05:56:42.040Z,1012.34
2018-07-13T05:57:42.026Z,1012.44
2018-07-13T05:58:42.010Z,1012.43
2018-07-13T05:59:41.994Z,1012.44
2018-07-13T06:00:41.980Z,1012.43
2018-07-13T06:01:41.969Z,1012.48
2018-07-13T06:02:41.954Z,1012.48
2018-07-13T06:03:41.936Z,1012.49
2018-07-13T06:04:41.924Z,1012.43
2018-07-13T06:05:41.909Z,1012.40
2018-07-13T06:06:41.892Z,1012.42
2018-07-13T06:07:41.878Z,1012.44
2018-07-13T06:08:41.865Z,1012.44
2018-07-13T06:09:41.896Z,1012.44
2018-07-13T06:10:41.832Z,1012.46
2018-07-13T06:11:41.821Z,1012.53
2018-07-13T06:12:41.807Z,1012.56
2018-07-13T06:13:41.791Z,1012.68
2018-07-13T06:14:41.847Z,1012.66
2018-07-13T06:15:41.762Z,1012.66
2018-07-13T06:16:41.750Z,1012.60
2018-07-13T06:17:41.734Z,1012.61
2018-07-13T06:18:41.722Z,1012.59
2018-07-13T06:19:41.705Z,1012.64
2018-07-13T06:20:41.691Z,1012.63
2018-07-13T06:21:41.677Z,1012.61
2018-07-13T06:22:41.662Z,1012.58
2018-07-13T06:23:41.648Z,1012.58
2018-07-13T06:24:41.636Z,1012.60
2018-07-13T06:25:41.618Z,1012.63
2018-07-13T06:26:41.605Z,1012.59
2018-07-13T06:27:41.595Z,1012.59
2018-07-13T06:28:41.576Z,1012.63
2018-07-13T06:29:41.563Z,1012.64
2018-07-13T06:30:41.551Z,1012.70
2018-07-13T06:31:41.537Z,1012.66
2018-07-13T06:32:41.521Z,1012.65
2018-07-13T06:33:41.506Z,1012.74
2018-07-13T06:34:41.493Z,1012.79
2018-07-13T06:35:41.478Z,1012.74
2018-07-13T06:36:41.464Z,1012.73
2018-07-13T06:37:41.452Z,1012.76
2018-07-13T06:38:41.435Z,1012.71
2018-07-13T06:39:41.422Z,1012.72
2018-07-13T06:40:41.413Z,1012.71
2018-07-13T06:41:41.394Z,1012.67
2018-07-13T06:42:41.389Z,1012.67
2018-07-13T06:43:41.368Z,1012.68
2018-07-13T06:44:41.423Z,1012.61
2018-07-13T06:45:41.339Z,1012.63
2018-07-13T06:46:41.325Z,1012.65
2018-07-13T06:47:41.320Z,1012.67
2018-07-13T06:48:41.311Z,1012.62
2018-07-13T06:49:41.282Z,1012.62
2018-07-13T06:50:41.279Z,1012.61
2018-07-13T06:51:41.262Z,1012.62
2018-07-13T06:52:41.244Z,1012.62
2018-07-13T06:53:41.228Z,1012.55
2018-07-13T06:54:41.215Z,1012.57
2018-07-13T06:55:41.203Z,1012.55
2018-07-13T06:56:41.224Z,1012.62
2018-07-13T06:57:41.175Z,1012.58
2018-07-13T06:58:41.169Z,1012.57
2018-07-13T06:59:41.148Z,1012.62
2018-07-13T07:00:41.137Z,1012.65
2018-07-13T07:01:41.132Z,1012.63
2018-07-13T07:02:41.110Z,1012.64
2018-07-13T07:03:41.097Z,1012.61
2018-07-13T07:04:41.097Z,1012.64
2018-07-13T07:05:41.068Z,1012.69
2018-07-13T07:06:41.060Z,1012.69
2018-07-13T07:07:41.111Z,1012.78
2018-07-13T07:08:41.029Z,1012.78
2018-07-13T07:09:41.018Z,1012.88
2018-07-13T07:10:41.056Z,1012.82
2018-07-13T07:11:40.990Z,1012.86
2018-07-13T07:12:40.977Z,1012.86
2018-07-13T07:13:40.964Z,1012.82
2018-07-13T07:14:40.952Z,1012.92
2018-07-13T07:15:40.941Z,1013.04
2018-07-13T07:16:40.923Z,1013.01
2018-07-13T07:17:40.936Z,1012.97
2018-07-13T07:18:40.900Z,1012.98
2018-07-13T07:19:40.885Z,1012.96
2018-07-13T07:20:40.880Z,1012.97
2018-07-13T07:21:40.868Z,1013.01
2018-07-13T07:22:40.845Z,1013.04
2018-07-13T07:23:40.835Z,1013.01
2018-07-13T07:24:40.825Z,1013.01
2018-07-13T07:25:40.809Z,1013.02
2018-07-13T07:26:40.796Z,1013.04
2018-07-13T07:27:40.782Z,1013.08
2018-07-13T07:28:40.769Z,1013.09
2018-07-13T07:29:40.757Z,1013.07
2018-07-13T07:30:40.774Z,1013.08
2018-07-13T07:31:40.733Z,1013.11
2018-07-13T07:32:40.721Z,1013.12
2018-07-13T07:33:40.706Z,1013.11
2018-07-13T07:34:40.694Z,1013.02
2018-07-13T07:35:40.683Z,1013.06
2018-07-13T07:36:40.671Z,1013.01
2018-07-13T07:37:40.660Z,1013.02
2018-07-13T07:38:40.649Z,1013.05
2018-07-13T07:39:40.636Z,1013.03
2018-07-13T07:40:40.620Z,1012.99
2018-07-13T07:41:40.609Z,1012.98
2018-07-13T07:42:40.597Z,1012.98
2018-07-13T07:43:40.587Z,1013.00
2018-07-13T07:44:40.571Z,1013.00
2018-07-13T07:45:40.559Z,1013.07
2018-07-13T07:46:40.550Z,1013.03
2018-07-13T07:47:40.537Z,1013.05
2018-07-13T07:48:40.528Z,1013.07
2018-07-13T07:49:40.513Z,1013.12
2018-07-13T07:50:40.499Z,1013.14
2018-07-13T07:51:40.487Z,1013.11
2018-07-13T07:52:40.480Z,1013.12
2018-07-13T07:53:40.464Z,1013.12
2018-07-13T07:54:40.452Z,1013.08
2018-07-13T07:55:40.442Z,1013.07
2018-07-13T07:56:40.427Z,1013.08
2018-07-13T07:57:40.481Z,1013.08
2018-07-13T07:58:40.404Z,1013.07
2018-07-13T07:59:40.401Z,1013.02
2018-07-13T08:00:40.378Z,1013.08
2018-07-13T08:01:40.380Z,1013.05
2018-07-13T08:02:40.354Z,1013.06
2018-07-13T08:03:40.343Z,1013.15
2018-07-13T08:04:40.339Z,1013.16
2018-07-13T08:05:40.319Z,1013.15
2018-07-13T08:06:40.519Z,1013.11
2018-07-13T08:07:40.333Z,1013.05
2018-07-13T08:08:40.284Z,1013.23
2018-07-13T08:09:40.268Z,1013.44
2018-07-13T08:10:40.261Z,1013.53
2018-07-13T08:11:40.245Z,1013.37
2018-07-13T08:12:40.232Z,1013.26
2018-07-13T08:13:40.240Z,1013.18
2018-07-13T08:14:40.335Z,1013.15
2018-07-13T08:15:40.197Z,1013.07
2018-07-13T08:16:40.185Z,1013.08
2018-07-13T08:17:40.178Z,1013.02
2018-07-13T08:18:40.167Z,1013.06
2018-07-13T08:19:40.167Z,1013.15
2018-07-13T08:20:40.136Z,1013.15
2018-07-13T08:21:40.123Z,1013.19
2018-07-13T08:22:40.111Z,1013.22
2018-07-13T08:23:40.101Z,1013.13
2018-07-13T08:24:40.093Z,1013.11
2018-07-13T08:25:40.083Z,1013.10
2018-07-13T08:26:40.114Z,1013.13
2018-07-13T08:27:40.053Z,1013.07
2018-07-13T08:28:40.040Z,1013.10
2018-07-13T08:29:40.027Z,1013.13
2018-07-13T08:30:40.014Z,1013.17
2018-07-13T08:31:40.008Z,1013.17
2018-07-13T08:32:40.000Z,1013.23
2018-07-13T08:33:39.981Z,1013.22
2018-07-13T08:34:39.967Z,1013.21
2018-07-13T08:35:39.956Z,1013.21
2018-07-13T08:36:39.945Z,1013.25
2018-07-13T08:37:39.949Z,1013.23
2018-07-13T08:38:39.919Z,1013.19
2018-07-13T08:39:39.908Z,1013.26
2018-07-13T08:40:39.901Z,1013.32
2018-07-13T08:41:39.886Z,1013.42
2018-07-13T08:42:39.876Z,1013.46
2018-07-13T08:43:39.861Z,1013.47
2018-07-13T08:44:39.848Z,1013.60
2018-07-13T08:45:39.854Z,1013.56
2018-07-13T08:46:39.821Z,1013.64
2018-07-13T08:47:39.819Z,1013.56
2018-07-13T08:48:39.800Z,1013.52
2018-07-13T08:49:39.791Z,1013.41
2018-07-13T08:50:39.780Z,1013.41
2018-07-13T08:51:39.809Z,1013.38
2018-07-13T08:52:39.768Z,1013.40
2018-07-13T08:53:39.747Z,1013.37
2018-07-13T08:54:39.730Z,1013.30
2018-07-13T08:55:39.727Z,1013.38
2018-07-13T08:56:39.714Z,1013.29
2018-07-13T08:57:39.695Z,1013.31
2018-07-13T08:58:39.686Z,1013.27
2018-07-13T08:59:39.692Z,1013.27
2018-07-13T09:00:39.663Z,1013.24
2018-07-13T09:01:39.689Z,1013.25
2018-07-13T09:02:39.642Z,1013.23
2018-07-13T09:03:39.630Z,1013.27
2018-07-13T09:04:39.619Z,1013.33
2018-07-13T09:05:39.669Z,1013.28
2018-07-13T09:06:39.590Z,1013.29
2018-07-13T09:07:39.681Z,1013.30
2018-07-13T09:08:39.574Z,1013.33
2018-07-13T09:09:39.555Z,1013.33
2018-07-13T09:10:39.577Z,1013.30
2018-07-13T09:11:39.533Z,1013.28
2018-07-13T09:12:39.527Z,1013.25
2018-07-13T09:13:39.507Z,1013.29
2018-07-13T09:14:39.494Z,1013.29
2018-07-13T09:15:39.480Z,1013.33
2018-07-13T09:16:39.470Z,1013.37
2018-07-13T09:17:39.462Z,1013.36
2018-07-13T09:18:39.449Z,1013.37
2018-07-13T09:19:39.439Z,1013.39
2018-07-13T09:20:39.425Z,1013.36
2018-07-13T09:21:39.464Z,1013.40
2018-07-13T09:22:39.397Z,1013.47
2018-07-13T09:23:39.393Z,1013.46
2018-07-13T09:24:39.373Z,1013.49
2018-07-13T09:25:39.371Z,1013.44
2018-07-13T09:26:39.345Z,1013.42
2018-07-13T09:27:39.338Z,1013.39
2018-07-13T09:28:39.325Z,1013.35
2018-07-13T09:29:39.318Z,1013.37
2018-07-13T09:30:39.301Z,1013.37
2018-07-13T09:31:39.288Z,1013.43
2018-07-13T09:32:39.275Z,1013.45
2018-07-13T09:33:39.263Z,1013.49
2018-07-13T09:34:39.254Z,1013.49
2018-07-13T09:35:39.240Z,1013.51
2018-07-13T09:36:39.228Z,1013.49
2018-07-13T09:37:39.213Z,1013.54
2018-07-13T09:38:39.202Z,1013.59
2018-07-13T09:39:39.290Z,1013.58
2018-07-13T09:40:39.179Z,1013.59
2018-07-13T09:41:39.170Z,1013.61
2018-07-13T09:42:39.164Z,1013.62
2018-07-13T09:43:39.144Z,1013.57
2018-07-13T09:44:39.145Z,1013.57
2018-07-13T09:45:39.116Z,1013.56
2018-07-13T09:46:39.161Z,1013.58
2018-07-13T09:47:39.095Z,1013.58
2018-07-13T09:48:39.082Z,1013.55
2018-07-13T09:49:39.085Z,1013.53
2018-07-13T09:50:39.057Z,1013.54
2018-07-13T09:51:39.045Z,1013.55
2018-07-13T09:52:39.040Z,1013.55
2018-07-13T09:53:39.091Z,1013.56
2018-07-13T09:54:39.015Z,1013.55
2018-07-13T09:55:38.998Z,1013.61
2018-07-13T09:56:38.998Z,1013.60
2018-07-13T09:57:39.005Z,1013.59
2018-07-13T09:58:38.983Z,1013.55
2018-07-13T09:59:38.951Z,1013.62
2018-07-13T10:00:39.084Z,1013.55
2018-07-13T10:01:38.931Z,1013.55
2018-07-13T10:02:38.916Z,1013.51
2018-07-13T10:03:38.903Z,1013.52
2018-07-13T10:04:38.894Z,1013.52
2018-07-13T10:05:38.881Z,1013.52
2018-07-13T10:06:38.871Z,1013.55
2018-07-13T10:07:38.857Z,1013.53
2018-07-13T10:08:38.848Z,1013.51
2018-07-13T10:09:38.833Z,1013.51
2018-07-13T10:10:38.822Z,1013.49
2018-07-13T10:11:38.812Z,1013.51
2018-07-13T10:12:38.799Z,1013.58
2018-07-13T10:13:38.790Z,1013.54
2018-07-13T10:14:38.777Z,1013.53
2018-07-13T10:15:38.770Z,1013.56
2018-07-13T10:16:38.769Z,1013.60
2018-07-13T10:17:38.746Z,1013.61
2018-07-13T10:18:38.730Z,1013.62
2018-07-13T10:19:38.723Z,1013.62
2018-07-13T10:20:38.718Z,1013.63
2018-07-13T10:21:38.700Z,1013.63
2018-07-13T10:22:38.690Z,1013.62
2018-07-13T10:23:38.678Z,1013.62
2018-07-13T10:24:38.670Z,1013.62
2018-07-13T10:25:38.657Z,1013.62
2018-07-13T10:26:38.643Z,1013.66
2018-07-13T10:27:38.636Z,1013.66
2018-07-13T10:28:38.623Z,1013.65
2018-07-13T10:29:38.614Z,1013.66
2018-07-13T10:30:38.602Z,1013.68
2018-07-13T10:31:38.593Z,1013.66
2018-07-13T10:32:38.583Z,1013.64
2018-07-13T10:33:38.567Z,1013.65
2018-07-13T10:34:38.556Z,1013.68
2018-07-13T10:35:38.547Z,1013.66
2018-07-13T10:36:38.537Z,1013.66
2018-07-13T10:37:38.524Z,1013.68
2018-07-13T10:38:38.513Z,1013.64
2018-07-13T10:39:38.504Z,1013.66
2018-07-13T10:40:38.494Z,1013.65
2018-07-13T10:41:38.485Z,1013.69
2018-07-13T10:42:38.471Z,1013.63
2018-07-13T10:43:38.462Z,1013.66
2018-07-13T10:44:38.449Z,1013.64
2018-07-13T10:45:38.453Z,1013.68
2018-07-13T10:46:38.429Z,1013.67
2018-07-13T10:47:38.425Z,1013.69
2018-07-13T10:48:38.410Z,1013.68
2018-07-13T10:49:38.397Z,1013.68
2018-07-13T10:50:38.392Z,1013.71
2018-07-13T10:51:38.454Z,1013.72
2018-07-13T10:52:38.369Z,1013.71
2018-07-13T10:53:38.358Z,1013.67
2018-07-13T10:54:38.348Z,1013.72
2018-07-13T10:55:38.341Z,1013.70
2018-07-13T10:56:38.327Z,1013.73
2018-07-13T10:57:38.316Z,1013.71
2018-07-13T10:58:38.354Z,1013.72
2018-07-13T10:59:38.301Z,1013.71
2018-07-13T11:00:38.287Z,1013.71
2018-07-13T11:01:38.281Z,1013.69
2018-07-13T11:02:38.269Z,1013.67
2018-07-13T11:03:38.258Z,1013.65
2018-07-13T11:04:38.249Z,1013.69
2018-07-13T11:05:38.243Z,1013.68
2018-07-13T11:06:38.230Z,1013.65
2018-07-13T11:07:38.227Z,1013.67
2018-07-13T11:08:38.213Z,1013.66
2018-07-13T11:09:38.205Z,1013.65
2018-07-13T11:10:38.193Z,1013.66
2018-07-13T11:11:38.182Z,1013.65
2018-07-13T11:12:38.176Z,1013.66
2018-07-13T11:13:38.192Z,1013.63
2018-07-13T11:14:41.012Z,1013.61
2018-07-13T11:15:38.152Z,1013.64
2018-07-13T11:16:38.141Z,1013.62
2018-07-13T11:17:38.129Z,1013.60
2018-07-13T11:18:38.120Z,1013.59
2018-07-13T11:19:38.120Z,1013.58
2018-07-13T11:20:38.103Z,1013.58
2018-07-13T11:21:38.097Z,1013.59
2018-07-13T11:22:38.084Z,1013.61
2018-07-13T11:23:38.074Z,1013.61
2018-07-13T11:24:38.068Z,1013.60
2018-07-13T11:25:38.059Z,1013.51
2018-07-13T11:26:38.052Z,1013.51
2018-07-13T11:27:38.042Z,1013.56
2018-07-13T11:28:38.036Z,1013.52
2018-07-13T11:29:38.077Z,1013.54
2018-07-13T11:30:38.013Z,1013.55
2018-07-13T11:31:38.011Z,1013.55
2018-07-13T11:32:38.000Z,1013.52
2018-07-13T11:33:37.997Z,1013.69
2018-07-13T11:34:37.988Z,1013.72
2018-07-13T11:35:37.978Z,1013.63
2018-07-13T11:36:37.968Z,1013.66
2018-07-13T11:37:37.964Z,1013.60
2018-07-13T11:38:37.957Z,1013.61
2018-07-13T11:39:37.949Z,1013.64
2018-07-13T11:40:37.942Z,1013.73
2018-07-13T11:41:37.937Z,1013.80
2018-07-13T11:42:37.931Z,1013.74
2018-07-13T11:43:37.927Z,1013.92
2018-07-13T11:44:37.924Z,1013.79
2018-07-13T11:45:37.924Z,1013.68
2018-07-13T11:46:37.906Z,1013.80
2018-07-13T11:47:37.901Z,1013.88
2018-07-13T11:48:37.899Z,1014.00
2018-07-13T11:49:37.892Z,1013.98
2018-07-13T11:50:37.891Z,1013.99
2018-07-13T11:51:37.886Z,1013.99
2018-07-13T11:52:37.882Z,1013.81
2018-07-13T11:53:37.876Z,1014.02
2018-07-13T11:54:37.873Z,1013.33
2018-07-13T11:55:37.870Z,1013.30
2018-07-13T11:56:37.866Z,1013.35
2018-07-13T11:57:37.860Z,1013.33
2018-07-13T11:58:37.860Z,1013.32
2018-07-13T11:59:37.868Z,1013.29
2018-07-13T12:00:37.892Z,1013.28
2018-07-13T12:01:37.844Z,1013.29
2018-07-13T12:02:37.845Z,1013.33
2018-07-13T12:03:37.841Z,1013.30
2018-07-13T12:04:37.852Z,1013.31
2018-07-13T12:05:37.832Z,1013.28